Friday, January 19, 2018, 10:37 AM EST
Back to Local

K12N, Aeroflex-andover Airport

Location: Newton, NJ, United States Lat: 41.017
Local Time: 10:37 AM EST (15:37 GMT) Lon: -74.733
Time Zone: US/Eastern Elev: 583 ft

Show me the last for .
Show Decoded

2018-01-19 09:54 METAR K12N 191454Z AUTO 00000KT M08/M08 A3006 RMK AO1 SLP197 T10781083 53005 =
2018-01-19 08:54 METAR K12N 191354Z AUTO 00000KT M13/M14 A3005 RMK AO1 SLP197 T11331139 =
2018-01-19 07:54 METAR K12N 191254Z AUTO 00000KT M17/M18 A3004 RMK AO1 SLP194 T11671178 =
2018-01-19 06:54 METAR K12N 191154Z AUTO 00000KT M17/M18 A3004 RMK AO1 SLP192 T11671178 11144
                 21172 53003 =
2018-01-19 05:54 METAR K12N 191054Z AUTO 00000KT M17/M18 A3003 RMK AO1 SLP191 T11671183 =
2018-01-19 04:54 METAR K12N 190954Z AUTO 00000KT M17/M18 A3003 RMK AO1 SLP189 T11671178 =
2018-01-19 03:54 METAR K12N 190854Z AUTO 00000KT M17/M18 A3003 RMK AO1 SLP189 T11671183 53003 =
2018-01-19 02:54 METAR K12N 190754Z AUTO 00000KT M16/M17 A3002 RMK AO1 SLP183 T11561172 =
2018-01-19 01:54 METAR K12N 190654Z AUTO 00000KT M15/M17 A3002 RMK AO1 SLP183 T11501167 =
2018-01-19 00:54 METAR K12N 190554Z AUTO 00000KT M15/M17 A3002 RMK AO1 SLP185 T11501167 11050
                 21156 58014 =
2018-01-18 23:54 METAR K12N 190454Z AUTO 00000KT M15/M16 A3004 RMK AO1 SLP192 T11501161 410171206
                 =
2018-01-18 22:54 METAR K12N 190354Z AUTO 00000KT M13/M15 A3006 RMK AO1 SLP197 T11331150 =
2018-01-18 21:54 METAR K12N 190254Z AUTO 00000KT M13/M14 A3006 RMK AO1 SLP202 T11281144 53017 =
2018-01-18 20:54 METAR K12N 190154Z AUTO 00000KT M11/M13 A3004 RMK AO1 SLP196 T11111128 =
2018-01-18 19:54 METAR K12N 190054Z AUTO 00000KT M09/M12 A3003 RMK AO1 SLP191 T10891122 =
2018-01-18 18:54 METAR K12N 182354Z AUTO VRB03KT M05/M12 A3001 RMK AO1 SLP184 T10501122 11017
                 21050 53023 =
2018-01-18 17:54 METAR K12N 182254Z AUTO VRB03KT M04/M12 A2998 RMK AO1 SLP175 T10441122 =
2018-01-18 16:54 METAR K12N 182154Z AUTO VRB05KT M04/M12 A2996 RMK AO1 SLP165 T10391122 =
2018-01-18 15:54 METAR K12N 182054Z AUTO 33008KT 290V360 M03/M12 A2994 RMK AO1 SLP160 T10281122
                 55005 =
2018-01-18 14:54 METAR K12N 181954Z AUTO VRB06KT M02/M13 A2993 RMK AO1 SLP157 T10221128 =
2018-01-18 13:54 METAR K12N 181854Z AUTO 34005KT M02/M13 A2994 RMK AO1 SLP157 T10171128 =
2018-01-18 12:54 METAR K12N 181754Z AUTO 33007KT M03/M14 A2996 RMK AO1 SLP164 T10281139 11028
                 21200 58036 =
2018-01-18 11:54 METAR K12N 181654Z AUTO VRB06KT M04/M13 A3000 RMK AO1 PRESFR SLP179 T10391133 =
2018-01-18 10:54 METAR K12N 181554Z AUTO 00000KT M06/M13 A3005 RMK AO1 SLP195 T10611128 =

Support USWX by starting your Amazon purchase here.